This is the latest recevied weather packets stored in our database for station/object K3RTA. If no packets are shown the sender has not sent any weather packets the latest 10 day(s).
| Time | Temp. | Humidity | Pressure | Rain* | Wind** | Luminosity | Snow |
|---|---|---|---|---|---|---|---|
| 1777689607 | 11.11° C | 86% | 1010.3 hPa | 0 mm | - | - | - |
| 1777687207 | 12.22° C | 84% | 1010.6 hPa | 0 mm | - | - | - |
| 1777681207 | 12.78° C | 79% | 1009.9 hPa | 0 mm | - | - | - |
| 1777679407 | 13.89° C | 72% | 1009.7 hPa | 0 mm | - | - | - |
| 1777671007 | 18.89° C | 37% | 1009.7 hPa | 0 mm | - | - | - |
| 1777670407 | 18.33° C | 37% | 1009.8 hPa | 0 mm | - | - | - |
| 1777669207 | 18.89° C | 37% | 1009.9 hPa | 0 mm | - | - | - |
| 1777662607 | 17.22° C | 39% | 1010.9 hPa | 0 mm | - | - | - |
| 1777649407 | 14.44° C | 39% | 1012.9 hPa | 0 mm | - | - | - |
| 1777642807 | 12.22° C | 55% | 1013.4 hPa | 0 mm | - | - | - |
| 1777640406 | 11.11° C | 66% | 1013.6 hPa | 0 mm | - | - | - |
| 1777636207 | 7.78° C | 82% | 1013.4 hPa | 0 mm | - | - | - |
| 1777632006 | 4.44° C | 89% | 1013.2 hPa | 0 mm | - | - | - |
| 1777629007 | 5° C | 87% | 1012.9 hPa | 0 mm | - | - | - |
| 1777628407 | 5.56° C | 87% | 1012.9 hPa | 0 mm | - | - | - |
| 1777626607 | 5.56° C | 86% | 1012.8 hPa | 0 mm | - | - | - |
| 1777623006 | 7.22° C | 81% | 1012.3 hPa | 0 mm | - | - | - |
| 1777620608 | 7.22° C | 82% | 1012 hPa | 0 mm | - | - | - |
| 1777618807 | 7.22° C | 83% | 1011.8 hPa | 0 mm | - | - | - |
| 1777613406 | 8.33° C | 79% | 1011.6 hPa | 0 mm | - | - | - |
| 1777608610 | 9.44° C | 72% | 1011.1 hPa | 0 mm | - | - | - |
| 1777605607 | 10.56° C | 68% | 1010.9 hPa | 0 mm | - | - | - |
| 1777605006 | 10.56° C | 67% | 1010.8 hPa | 0 mm | - | - | - |
| 1777603807 | 11.11° C | 66% | 1011 hPa | 0 mm | - | - | - |
| 1777603207 | 11.11° C | 65% | 1011 hPa | 0 mm | - | - | - |
* Rain latest hour (hover to see other rain measurements)
** Current wind speed in m/s (hover to see current wind gust speed)